Time;durP1;ratioP1;P1;durP2;ratioP2;P2;SDS_P1;SDS_P2;PMS_P1;PMS_P2;Temp;Humidity;BMP_temperature;BMP_pressure;BME280_temperature;BME280_humidity;BME280_pressure;Samples;Min_cycle;Max_cycle;Signal;HPM_P1;HPM_P2
2023/04/13 01:01:56;;;;;;;1999.90;999.90;;;;;;;;;;6213056;23;20176;-72
2023/04/13 01:04:40;;;;;;;1999.90;999.90;;;;;;;;;;6212845;23;20172;-71
2023/04/13 01:07:27;;;;;;;1999.90;999.90;;;;;;;;;;6213542;23;20176;-70
2023/04/13 01:10:17;;;;;;;1999.90;999.90;;;;;;;;;;6211542;23;20445;-72
2023/04/13 01:13:08;;;;;;;1999.90;999.90;;;;;;;;;;6213570;23;20165;-72
2023/04/13 01:15:55;;;;;;;1999.90;999.90;;;;;;;;;;6213712;23;20170;-71
2023/04/13 01:18:42;;;;;;;1999.90;999.90;;;;;;;;;;6213474;23;20196;-73
2023/04/13 01:21:29;;;;;;;1999.90;999.90;;;;;;;;;;6213620;23;20855;-72
2023/04/13 01:24:20;;;;;;;1999.90;999.90;;;;;;;;;;6213415;23;20626;-72
2023/04/13 01:27:08;;;;;;;1999.90;999.90;;;;;;;;;;6213563;23;20170;-72
2023/04/13 01:29:57;;;;;;;1999.90;999.90;;;;;;;;;;6213040;23;20200;-70
2023/04/13 01:32:42;;;;;;;1999.90;999.90;;;;;;;;;;6213253;23;20239;-72
2023/04/13 01:35:27;;;;;;;1999.90;999.90;;;;;;;;;;6213374;23;20184;-72
2023/04/13 01:38:13;;;;;;;1999.90;999.90;;;;;;;;;;6213201;23;20189;-72
2023/04/13 01:40:59;;;;;;;1999.90;999.90;;;;;;;;;;6213387;23;20206;-72
2023/04/13 01:43:45;;;;;;;1999.90;999.90;;;;;;;;;;6211730;23;20374;-72
2023/04/13 01:46:33;;;;;;;1999.90;999.90;;;;;;;;;;6215499;23;20169;-72
2023/04/13 01:49:19;;;;;;;1999.90;999.90;;;;;;;;;;6215333;23;20164;-72
2023/04/13 01:52:05;;;;;;;1999.90;999.90;;;;;;;;;;6215221;23;20173;-71
2023/04/13 01:54:50;;;;;;;1999.90;999.90;;;;;;;;;;6215377;23;20215;-72
2023/04/13 01:57:36;;;;;;;1999.90;999.90;;;;;;;;;;6213793;23;20471;-72
2023/04/13 02:00:21;;;;;;;1999.90;999.90;;;;;;;;;;6214966;23;20228;-71
2023/04/13 02:03:08;;;;;;;1999.90;999.90;;;;;;;;;;6215128;23;20168;-71
2023/04/13 02:05:55;;;;;;;1999.90;999.90;;;;;;;;;;6215296;23;20236;-71
2023/04/13 02:08:40;;;;;;;1999.90;999.90;;;;;;;;;;6215158;23;20227;-71
2023/04/13 02:11:26;;;;;;;1999.90;999.90;;;;;;;;;;6215122;23;20204;-72
2023/04/13 02:14:11;;;;;;;1999.90;999.90;;;;;;;;;;6214873;23;20673;-72
2023/04/13 02:16:55;;;;;;;1999.90;999.90;;;;;;;;;;6215206;23;20229;-73
2023/04/13 02:19:44;;;;;;;1999.90;999.90;;;;;;;;;;6214974;23;20689;-72
2023/04/13 02:22:30;;;;;;;1999.90;999.90;;;;;;;;;;6215040;23;20186;-72
2023/04/13 02:25:16;;;;;;;1999.90;999.90;;;;;;;;;;6215195;23;20219;-72
2023/04/13 02:28:00;;;;;;;1999.90;999.90;;;;;;;;;;6215147;23;20650;-72
2023/04/13 02:30:45;;;;;;;1999.90;999.90;;;;;;;;;;6215092;23;20305;-72
2023/04/13 02:33:30;;;;;;;1999.90;999.90;;;;;;;;;;6213386;23;20370;-72
2023/04/13 02:36:17;;;;;;;1999.90;999.90;;;;;;;;;;6215194;23;20185;-71
2023/04/13 02:39:02;;;;;;;1999.90;999.90;;;;;;;;;;6214846;23;20266;-70
2023/04/13 02:41:48;;;;;;;1999.90;999.90;;;;;;;;;;6214946;23;20511;-72
2023/04/13 02:44:33;;;;;;;1999.90;999.90;;;;;;;;;;6214991;23;20177;-72
2023/04/13 02:47:18;;;;;;;1999.90;999.90;;;;;;;;;;6213654;23;20429;-72
2023/04/13 02:50:04;;;;;;;1999.90;999.90;;;;;;;;;;6214718;23;20197;-72
2023/04/13 02:52:52;;;;;;;1999.90;999.90;;;;;;;;;;6214798;23;20166;-72
2023/04/13 02:55:37;;;;;;;1999.90;999.90;;;;;;;;;;6214932;23;20657;-72
2023/04/13 02:58:23;;;;;;;1999.90;999.90;;;;;;;;;;6214645;23;20190;-72
2023/04/13 03:01:09;;;;;;;1999.90;999.90;;;;;;;;;;6214607;23;20217;-73
2023/04/13 03:03:54;;;;;;;1999.90;999.90;;;;;;;;;;6214558;23;20215;-73
2023/04/13 03:06:38;;;;;;;1999.90;999.90;;;;;;;;;;6214765;23;20188;-72
2023/04/13 03:09:25;;;;;;;1999.90;999.90;;;;;;;;;;6214562;23;20177;-71
2023/04/13 03:12:10;;;;;;;1999.90;999.90;;;;;;;;;;6214501;23;20170;-72
2023/04/13 03:14:55;;;;;;;1999.90;999.90;;;;;;;;;;6214685;23;20560;-72
2023/04/13 03:17:42;;;;;;;1999.90;999.90;;;;;;;;;;6214737;23;20166;-72
2023/04/13 03:20:28;;;;;;;1999.90;999.90;;;;;;;;;;6214526;23;20197;-72
2023/04/13 03:23:13;;;;;;;1999.90;999.90;;;;;;;;;;6214335;23;20168;-72
2023/04/13 03:26:00;;;;;;;1999.90;999.90;;;;;;;;;;6214633;23;20172;-70
2023/04/13 03:28:46;;;;;;;1999.90;999.90;;;;;;;;;;6214509;23;20164;-72
2023/04/13 03:31:30;;;;;;;1999.90;999.90;;;;;;;;;;6214442;23;20291;-72
2023/04/13 03:34:16;;;;;;;1999.90;999.90;;;;;;;;;;6212714;23;20374;-72
2023/04/13 03:37:01;;;;;;;1999.90;999.90;;;;;;;;;;6214545;23;20204;-73
2023/04/13 03:39:46;;;;;;;1999.90;999.90;;;;;;;;;;6213440;23;20588;-72
2023/04/13 03:42:32;;;;;;;1999.90;999.90;;;;;;;;;;6213673;23;20169;-71
2023/04/13 03:45:17;;;;;;;1999.90;999.90;;;;;;;;;;6214380;23;20208;-73
2023/04/13 03:48:04;;;;;;;1999.90;999.90;;;;;;;;;;6213970;23;20176;-71
2023/04/13 03:50:49;;;;;;;1999.90;999.90;;;;;;;;;;6213947;23;20208;-72
2023/04/13 03:53:34;;;;;;;1999.90;999.90;;;;;;;;;;6213651;23;20171;-71
2023/04/13 03:56:20;;;;;;;1999.90;999.90;;;;;;;;;;6213825;23;20181;-72
2023/04/13 03:59:06;;;;;;;1999.90;999.90;;;;;;;;;;6214038;23;20191;-72
2023/04/13 04:01:51;;;;;;;1999.90;999.90;;;;;;;;;;6213732;23;20726;-72
2023/04/13 04:04:36;;;;;;;1999.90;999.90;;;;;;;;;;6214265;23;20169;-72
2023/04/13 04:07:22;;;;;;;1999.90;999.90;;;;;;;;;;6213470;23;20176;-72
2023/04/13 04:10:08;;;;;;;1999.90;999.90;;;;;;;;;;6213499;23;20200;-70
2023/04/13 04:12:54;;;;;;;1999.90;999.90;;;;;;;;;;6213950;23;20187;-72
2023/04/13 04:15:40;;;;;;;1999.90;999.90;;;;;;;;;;6213316;23;20172;-72
2023/04/13 04:18:25;;;;;;;1999.90;999.90;;;;;;;;;;6213514;23;20301;-71
2023/04/13 04:21:11;;;;;;;1999.90;999.90;;;;;;;;;;6213081;23;20283;-72
2023/04/13 04:23:59;;;;;;;1999.90;999.90;;;;;;;;;;6213768;23;20255;-72
2023/04/13 04:26:49;;;;;;;1999.90;999.90;;;;;;;;;;6213537;23;20620;-72
2023/04/13 04:29:34;;;;;;;1999.90;999.90;;;;;;;;;;6213850;23;20168;-72
2023/04/13 04:32:22;;;;;;;1999.90;999.90;;;;;;;;;;6213675;23;20680;-72
2023/04/13 04:35:08;;;;;;;1999.90;999.90;;;;;;;;;;6213064;23;20172;-71
2023/04/13 04:37:54;;;;;;;1999.90;999.90;;;;;;;;;;6213962;23;20239;-73
2023/04/13 04:40:44;;;;;;;1999.90;999.90;;;;;;;;;;6213321;23;20330;-72
2023/04/13 04:43:29;;;;;;;1999.90;999.90;;;;;;;;;;6213725;23;20176;-72
2023/04/13 04:46:15;;;;;;;1999.90;999.90;;;;;;;;;;6213525;23;20296;-72
2023/04/13 04:49:02;;;;;;;1999.90;999.90;;;;;;;;;;6212842;23;20656;-72
2023/04/13 04:51:48;;;;;;;1999.90;999.90;;;;;;;;;;6213471;23;20169;-72
2023/04/13 04:54:33;;;;;;;1999.90;999.90;;;;;;;;;;6213687;23;20254;-72
2023/04/13 04:57:18;;;;;;;1999.90;999.90;;;;;;;;;;6213385;23;20395;-72
2023/04/13 05:00:08;;;;;;;1999.90;999.90;;;;;;;;;;6213405;23;20211;-71
2023/04/13 05:02:53;;;;;;;1999.90;999.90;;;;;;;;;;6213599;23;20220;-69
2023/04/13 05:05:39;;;;;;;1999.90;999.90;;;;;;;;;;6213632;23;20516;-68
2023/04/13 05:08:24;;;;;;;1999.90;999.90;;;;;;;;;;6214029;23;20503;-72
2023/04/13 05:11:09;;;;;;;1999.90;999.90;;;;;;;;;;6212843;23;20395;-69
2023/04/13 05:13:55;;;;;;;1999.90;999.90;;;;;;;;;;6213278;23;20177;-71
2023/04/13 05:16:40;;;;;;;1999.90;999.90;;;;;;;;;;6213587;23;20176;-71
2023/04/13 05:19:25;;;;;;;1999.90;999.90;;;;;;;;;;6213566;23;20433;-72
2023/04/13 05:22:13;;;;;;;1999.90;999.90;;;;;;;;;;6215638;23;20502;-71
2023/04/13 05:24:58;;;;;;;1999.90;999.90;;;;;;;;;;6215654;23;20236;-71
2023/04/13 05:27:43;;;;;;;1999.90;999.90;;;;;;;;;;6215695;23;20171;-68
2023/04/13 05:30:28;;;;;;;1999.90;999.90;;;;;;;;;;6215256;23;20279;-70
2023/04/13 05:33:15;;;;;;;1999.90;999.90;;;;;;;;;;6215237;23;20621;-70
2023/04/13 05:36:01;;;;;;;1999.90;999.90;;;;;;;;;;6215539;23;20525;-70
2023/04/13 05:38:47;;;;;;;1999.90;999.90;;;;;;;;;;6215128;23;20199;-67
2023/04/13 05:41:32;;;;;;;1999.90;999.90;;;;;;;;;;6215763;23;20704;-68
2023/04/13 05:44:17;;;;;;;1999.90;999.90;;;;;;;;;;6215170;23;20169;-70
2023/04/13 05:47:02;;;;;;;1999.90;999.90;;;;;;;;;;6215196;23;20170;-71
2023/04/13 05:49:47;;;;;;;1999.90;999.90;;;;;;;;;;6215143;23;20346;-72
2023/04/13 05:52:32;;;;;;;1999.90;999.90;;;;;;;;;;6215125;23;20170;-71
2023/04/13 05:55:18;;;;;;;1999.90;999.90;;;;;;;;;;6215341;23;20225;-71
2023/04/13 05:58:03;;;;;;;1999.90;999.90;;;;;;;;;;6215284;23;20403;-71
2023/04/13 06:00:48;;;;;;;1999.90;999.90;;;;;;;;;;6214939;23;20255;-71
2023/04/13 06:03:33;;;;;;;1999.90;999.90;;;;;;;;;;6214941;23;20176;-71
2023/04/13 06:06:19;;;;;;;1999.90;999.90;;;;;;;;;;6215158;23;20617;-71
2023/04/13 06:09:05;;;;;;;1999.90;999.90;;;;;;;;;;6214908;23;20185;-72
2023/04/13 06:11:51;;;;;;;1999.90;999.90;;;;;;;;;;6212495;23;20513;-71
2023/04/13 06:14:37;;;;;;;1999.90;999.90;;;;;;;;;;6212249;23;20176;-70
2023/04/13 06:17:22;;;;;;;1999.90;999.90;;;;;;;;;;6213053;23;20169;-71
2023/04/13 06:20:07;;;;;;;1999.90;999.90;;;;;;;;;;6212179;23;20781;-71
2023/04/13 06:22:53;;;;;;;1999.90;999.90;;;;;;;;;;6211407;23;20173;-71
2023/04/13 06:25:39;;;;;;;1999.90;999.90;;;;;;;;;;6211110;23;20169;-70
2023/04/13 06:28:28;;;;;;;1999.90;999.90;;;;;;;;;;6212863;23;20277;-70
2023/04/13 06:31:13;;;;;;;1999.90;999.90;;;;;;;;;;6212645;23;20261;-70
2023/04/13 06:33:58;;;;;;;1999.90;999.90;;;;;;;;;;6212243;23;20637;-71
2023/04/13 06:36:42;;;;;;;1999.90;999.90;;;;;;;;;;6212712;23;20184;-70
2023/04/13 06:39:27;;;;;;;1999.90;999.90;;;;;;;;;;6210955;23;20196;-71
2023/04/13 06:42:14;;;;;;;1999.90;999.90;;;;;;;;;;6212033;23;20629;-71
2023/04/13 06:45:00;;;;;;;1999.90;999.90;;;;;;;;;;6212610;23;20633;-70
2023/04/13 06:47:45;;;;;;;1999.90;999.90;;;;;;;;;;6212594;23;20412;-71
2023/04/13 06:50:30;;;;;;;1999.90;999.90;;;;;;;;;;6211847;23;20205;-72
2023/04/13 06:53:15;;;;;;;1999.90;999.90;;;;;;;;;;6212208;23;20184;-71
2023/04/13 06:56:00;;;;;;;1999.90;999.90;;;;;;;;;;6212627;23;20174;-71
2023/04/13 06:58:45;;;;;;;1999.90;999.90;;;;;;;;;;6212288;23;20228;-71
2023/04/13 07:01:31;;;;;;;1999.90;999.90;;;;;;;;;;6211204;23;20288;-71
2023/04/13 07:04:16;;;;;;;1999.90;999.90;;;;;;;;;;6212062;23;20166;-71
2023/04/13 07:07:01;;;;;;;1999.90;999.90;;;;;;;;;;6212356;23;20173;-71
2023/04/13 07:09:46;;;;;;;1999.90;999.90;;;;;;;;;;6212132;23;20271;-69
2023/04/13 07:12:32;;;;;;;1999.90;999.90;;;;;;;;;;6212063;23;20626;-72
2023/04/13 07:15:18;;;;;;;1999.90;999.90;;;;;;;;;;6212620;23;20177;-70
2023/04/13 07:18:04;;;;;;;1999.90;999.90;;;;;;;;;;6212619;23;20173;-71
2023/04/13 07:20:49;;;;;;;1999.90;999.90;;;;;;;;;;6211916;23;20712;-70
2023/04/13 07:23:34;;;;;;;1999.90;999.90;;;;;;;;;;6210306;23;20461;-70
2023/04/13 07:26:19;;;;;;;1999.90;999.90;;;;;;;;;;6211650;23;20266;-70
2023/04/13 07:29:04;;;;;;;1999.90;999.90;;;;;;;;;;6211707;23;20181;-70
2023/04/13 07:31:49;;;;;;;1999.90;999.90;;;;;;;;;;6212105;23;20561;-70
2023/04/13 07:34:36;;;;;;;1999.90;999.90;;;;;;;;;;6212356;23;20226;-71
2023/04/13 07:37:21;;;;;;;1999.90;999.90;;;;;;;;;;6210302;23;20398;-70
2023/04/13 07:40:07;;;;;;;1999.90;999.90;;;;;;;;;;6212181;23;20209;-70
2023/04/13 07:42:52;;;;;;;1999.90;999.90;;;;;;;;;;6212001;23;20296;-70
2023/04/13 07:45:37;;;;;;;1999.90;999.90;;;;;;;;;;6212504;23;20224;-70
2023/04/13 07:48:22;;;;;;;1999.90;999.90;;;;;;;;;;6212471;23;20617;-70
2023/04/13 07:51:16;;;;;;;1999.90;999.90;;;;;;;;;;6211287;23;20200;-70
2023/04/13 07:54:01;;;;;;;1999.90;999.90;;;;;;;;;;6211575;23;20277;-69
2023/04/13 07:56:46;;;;;;;1999.90;999.90;;;;;;;;;;6212429;23;20173;-71
2023/04/13 07:59:31;;;;;;;1999.90;999.90;;;;;;;;;;6212681;23;20313;-70
2023/04/13 08:02:17;;;;;;;1999.90;999.90;;;;;;;;;;6213710;23;20168;-70
2023/04/13 08:05:02;;;;;;;1999.90;999.90;;;;;;;;;;6213695;23;20169;-71
2023/04/13 08:07:48;;;;;;;1999.90;999.90;;;;;;;;;;6214216;23;20510;-70
2023/04/13 08:10:33;;;;;;;1999.90;999.90;;;;;;;;;;6214114;23;20216;-71
2023/04/13 08:13:18;;;;;;;1999.90;999.90;;;;;;;;;;6213476;23;20166;-70
2023/04/13 08:16:03;;;;;;;1999.90;999.90;;;;;;;;;;6214101;23;20166;-71
2023/04/13 08:18:49;;;;;;;1999.90;999.90;;;;;;;;;;6214050;23;20168;-71
2023/04/13 08:21:36;;;;;;;1999.90;999.90;;;;;;;;;;6213393;23;20279;-71
2023/04/13 08:24:23;;;;;;;1999.90;999.90;;;;;;;;;;6213846;23;20217;-72
2023/04/13 08:27:08;;;;;;;1999.90;999.90;;;;;;;;;;6212852;23;20461;-72
2023/04/13 08:29:54;;;;;;;1999.90;999.90;;;;;;;;;;6213554;23;20198;-72
2023/04/13 08:32:40;;;;;;;1999.90;999.90;;;;;;;;;;6213093;23;20174;-71
2023/04/13 08:35:25;;;;;;;1999.90;999.90;;;;;;;;;;6213268;23;20213;-71
2023/04/13 08:38:10;;;;;;;1999.90;999.90;;;;;;;;;;6212185;23;20175;-70
2023/04/13 08:40:57;;;;;;;1999.90;999.90;;;;;;;;;;6212167;23;20208;-71
2023/04/13 08:43:42;;;;;;;1999.90;999.90;;;;;;;;;;6213343;23;20169;-72
2023/04/13 08:46:27;;;;;;;1999.90;999.90;;;;;;;;;;6212585;23;20269;-72
2023/04/13 08:49:13;;;;;;;1999.90;999.90;;;;;;;;;;6213611;23;20165;-72
2023/04/13 08:51:59;;;;;;;1999.90;999.90;;;;;;;;;;6212801;23;20178;-71
2023/04/13 08:54:44;;;;;;;1999.90;999.90;;;;;;;;;;6213769;23;20169;-71
2023/04/13 08:57:31;;;;;;;1999.90;999.90;;;;;;;;;;6214156;23;20219;-71
2023/04/13 09:00:18;;;;;;;1999.90;999.90;;;;;;;;;;6212524;23;20434;-71
2023/04/13 09:03:06;;;;;;;1999.90;999.90;;;;;;;;;;6213686;23;20659;-71
2023/04/13 09:05:53;;;;;;;1999.90;999.90;;;;;;;;;;6214090;23;20174;-71
2023/04/13 09:08:43;;;;;;;1999.90;999.90;;;;;;;;;;6213851;23;20183;-72
2023/04/13 09:11:28;;;;;;;1999.90;999.90;;;;;;;;;;6213342;23;20200;-71
2023/04/13 09:14:17;;;;;;;1999.90;999.90;;;;;;;;;;6213184;23;20167;-71
2023/04/13 09:17:02;;;;;;;1999.90;999.90;;;;;;;;;;6212057;23;20373;-72
2023/04/13 09:19:47;;;;;;;1999.90;999.90;;;;;;;;;;6213843;23;20275;-72
2023/04/13 09:22:32;;;;;;;1999.90;999.90;;;;;;;;;;6212863;23;20638;-71
2023/04/13 09:25:21;;;;;;;1999.90;999.90;;;;;;;;;;6213907;23;20165;-71
2023/04/13 09:28:07;;;;;;;1999.90;999.90;;;;;;;;;;6213727;23;20607;-72
2023/04/13 09:31:01;;;;;;;1999.90;999.90;;;;;;;;;;6213064;23;20665;-71
2023/04/13 09:33:47;;;;;;;1999.90;999.90;;;;;;;;;;6212971;23;20181;-71
2023/04/13 09:36:32;;;;;;;1999.90;999.90;;;;;;;;;;6212976;23;20200;-72
2023/04/13 09:39:24;;;;;;;1999.90;999.90;;;;;;;;;;6213347;23;20628;-71
2023/04/13 09:42:10;;;;;;;1999.90;999.90;;;;;;;;;;6212208;23;20162;-71
2023/04/13 09:44:56;;;;;;;1999.90;999.90;;;;;;;;;;6212845;23;20167;-71
2023/04/13 09:47:44;;;;;;;1999.90;999.90;;;;;;;;;;6213134;23;20177;-71
2023/04/13 09:50:31;;;;;;;1999.90;999.90;;;;;;;;;;6213426;23;20229;-71
2023/04/13 09:53:16;;;;;;;1999.90;999.90;;;;;;;;;;6212721;23;20224;-72
2023/04/13 09:56:00;;;;;;;1999.90;999.90;;;;;;;;;;6213712;23;20259;-71
2023/04/13 09:58:46;;;;;;;1999.90;999.90;;;;;;;;;;6213488;23;20170;-70
2023/04/13 10:01:31;;;;;;;1999.90;999.90;;;;;;;;;;6212727;23;20220;-71
2023/04/13 10:04:18;;;;;;;1999.90;999.90;;;;;;;;;;6211511;23;20375;-71
2023/04/13 10:07:03;;;;;;;1999.90;999.90;;;;;;;;;;6213709;23;20354;-71
2023/04/13 10:09:50;;;;;;;1999.90;999.90;;;;;;;;;;6214924;23;20205;-71
2023/04/13 10:12:36;;;;;;;1999.90;999.90;;;;;;;;;;6214783;23;20224;-73
2023/04/13 10:15:30;;;;;;;1999.90;999.90;;;;;;;;;;6215263;23;20274;-73
2023/04/13 10:18:21;;;;;;;1999.90;999.90;;;;;;;;;;6215017;23;20220;-71
2023/04/13 10:21:07;;;;;;;1999.90;999.90;;;;;;;;;;6214069;23;20224;-71
2023/04/13 10:23:52;;;;;;;1999.90;999.90;;;;;;;;;;6212194;23;20170;-72
2023/04/13 10:26:38;;;;;;;1999.90;999.90;;;;;;;;;;6213187;23;20257;-71
2023/04/13 10:29:29;;;;;;;1999.90;999.90;;;;;;;;;;6212992;23;20174;-72
2023/04/13 10:32:21;;;;;;;1999.90;999.90;;;;;;;;;;6211580;23;20251;-72
2023/04/13 10:35:08;;;;;;;1999.90;999.90;;;;;;;;;;6212770;23;20165;-72
2023/04/13 10:37:57;;;;;;;1999.90;999.90;;;;;;;;;;6212554;23;20398;-72
2023/04/13 10:40:43;;;;;;;1999.90;999.90;;;;;;;;;;6212735;23;20209;-72
2023/04/13 10:43:28;;;;;;;1999.90;999.90;;;;;;;;;;6212806;23;20252;-72
2023/04/13 10:46:13;;;;;;;1999.90;999.90;;;;;;;;;;6212364;23;20168;-72
2023/04/13 10:48:58;;;;;;;1999.90;999.90;;;;;;;;;;6212452;23;20165;-72
2023/04/13 10:51:44;;;;;;;1999.90;999.90;;;;;;;;;;6212449;23;20431;-71
2023/04/13 10:54:31;;;;;;;1999.90;999.90;;;;;;;;;;6212528;23;20173;-70
2023/04/13 10:57:16;;;;;;;1999.90;999.90;;;;;;;;;;6213197;23;20257;-72
2023/04/13 11:00:03;;;;;;;1999.90;999.90;;;;;;;;;;6212301;23;20216;-72
2023/04/13 11:02:49;;;;;;;1999.90;999.90;;;;;;;;;;6212249;23;20174;-71
2023/04/13 11:05:34;;;;;;;1999.90;999.90;;;;;;;;;;6211567;23;20274;-71
2023/04/13 11:08:20;;;;;;;1999.90;999.90;;;;;;;;;;6210802;23;20204;-71
2023/04/13 11:11:06;;;;;;;1999.90;999.90;;;;;;;;;;6213174;23;20203;-71
2023/04/13 11:13:51;;;;;;;1999.90;999.90;;;;;;;;;;6212794;23;20173;-71
2023/04/13 11:16:46;;;;;;;1999.90;999.90;;;;;;;;;;6211736;23;20658;-71
2023/04/13 11:19:30;;;;;;;1999.90;999.90;;;;;;;;;;6211907;23;20168;-71
2023/04/13 11:22:16;;;;;;;1999.90;999.90;;;;;;;;;;6212200;23;20191;-71
2023/04/13 11:25:06;;;;;;;1999.90;999.90;;;;;;;;;;6211844;23;20387;-71
2023/04/13 11:27:56;;;;;;;1999.90;999.90;;;;;;;;;;6212115;23;20177;-71
2023/04/13 11:30:42;;;;;;;1999.90;999.90;;;;;;;;;;6213826;23;20304;-71
2023/04/13 11:33:28;;;;;;;1999.90;999.90;;;;;;;;;;6213108;23;20244;-71
2023/04/13 11:36:13;;;;;;;1999.90;999.90;;;;;;;;;;6214001;23;20193;-70
2023/04/13 11:39:00;;;;;;;1999.90;999.90;;;;;;;;;;6214216;23;20510;-71
2023/04/13 11:41:46;;;;;;;1999.90;999.90;;;;;;;;;;6214183;23;20200;-70
2023/04/13 11:44:33;;;;;;;1999.90;999.90;;;;;;;;;;6214537;23;20612;-71
2023/04/13 11:47:18;;;;;;;1999.90;999.90;;;;;;;;;;6214453;23;20169;-70
2023/04/13 11:50:03;;;;;;;1999.90;999.90;;;;;;;;;;6214101;23;20205;-71
2023/04/13 11:52:49;;;;;;;1999.90;999.90;;;;;;;;;;6213933;23;20168;-70
2023/04/13 11:55:34;;;;;;;1999.90;999.90;;;;;;;;;;6214557;23;20172;-71
2023/04/13 11:58:20;;;;;;;1999.90;999.90;;;;;;;;;;6214341;23;20166;-72
2023/04/13 12:01:08;;;;;;;1999.90;999.90;;;;;;;;;;6213883;23;20260;-71
2023/04/13 12:03:52;;;;;;;1999.90;999.90;;;;;;;;;;6214451;23;20185;-70
2023/04/13 12:06:40;;;;;;;1999.90;999.90;;;;;;;;;;6214187;23;20165;-71
2023/04/13 12:09:25;;;;;;;1999.90;999.90;;;;;;;;;;6213959;23;20252;-70
2023/04/13 12:12:14;;;;;;;1999.90;999.90;;;;;;;;;;6212610;23;20431;-69
2023/04/13 12:15:00;;;;;;;1999.90;999.90;;;;;;;;;;6214014;23;20507;-70
2023/04/13 12:17:53;;;;;;;1999.90;999.90;;;;;;;;;;6213957;23;20543;-71
2023/04/13 12:20:38;;;;;;;1999.90;999.90;;;;;;;;;;6213748;23;20200;-71
2023/04/13 12:23:24;;;;;;;1999.90;999.90;;;;;;;;;;6213704;23;20657;-70
2023/04/13 12:26:12;;;;;;;1999.90;999.90;;;;;;;;;;6213116;23;20379;-70
2023/04/13 12:28:56;;;;;;;1999.90;999.90;;;;;;;;;;6213725;23;20170;-70
2023/04/13 12:31:43;;;;;;;1999.90;999.90;;;;;;;;;;6214193;23;20204;-71
2023/04/13 12:34:29;;;;;;;1999.90;999.90;;;;;;;;;;6213729;23;20205;-70
2023/04/13 12:37:14;;;;;;;1999.90;999.90;;;;;;;;;;6213973;23;20165;-70
2023/04/13 12:39:59;;;;;;;1999.90;999.90;;;;;;;;;;6213794;23;20205;-70
2023/04/13 12:42:45;;;;;;;1999.90;999.90;;;;;;;;;;6213775;23;20189;-70
2023/04/13 12:45:30;;;;;;;1999.90;999.90;;;;;;;;;;6213998;23;20170;-70
2023/04/13 12:48:15;;;;;;;1999.90;999.90;;;;;;;;;;6212527;23;20166;-71
2023/04/13 12:51:01;;;;;;;1999.90;999.90;;;;;;;;;;6213132;23;20200;-71
2023/04/13 12:53:46;;;;;;;1999.90;999.90;;;;;;;;;;6213435;23;20246;-70
2023/04/13 12:56:31;;;;;;;1999.90;999.90;;;;;;;;;;6213390;23;20228;-71
2023/04/13 12:59:16;;;;;;;1999.90;999.90;;;;;;;;;;6212749;23;20394;-70
2023/04/13 13:02:01;;;;;;;1999.90;999.90;;;;;;;;;;6213537;23;20639;-71
2023/04/13 13:04:46;;;;;;;1999.90;999.90;;;;;;;;;;6213564;23;20165;-71
2023/04/13 13:07:32;;;;;;;1999.90;999.90;;;;;;;;;;6213490;23;20236;-72
2023/04/13 13:10:17;;;;;;;1999.90;999.90;;;;;;;;;;6213078;23;20281;-71
2023/04/13 13:13:02;;;;;;;1999.90;999.90;;;;;;;;;;6212792;23;20241;-71
2023/04/13 13:15:47;;;;;;;1999.90;999.90;;;;;;;;;;6213241;23;20622;-71
2023/04/13 13:18:32;;;;;;;1999.90;999.90;;;;;;;;;;6212493;23;20185;-70
2023/04/13 13:21:17;;;;;;;1999.90;999.90;;;;;;;;;;6213054;23;20201;-71
2023/04/13 13:24:03;;;;;;;1999.90;999.90;;;;;;;;;;6212117;23;20232;-71
2023/04/13 13:26:48;;;;;;;1999.90;999.90;;;;;;;;;;6213013;23;20618;-71
2023/04/13 13:29:35;;;;;;;1999.90;999.90;;;;;;;;;;6213405;23;20501;-72
2023/04/13 13:32:20;;;;;;;1999.90;999.90;;;;;;;;;;6213435;23;20166;-72
2023/04/13 13:35:07;;;;;;;1999.90;999.90;;;;;;;;;;6214059;23;20216;-72
2023/04/13 13:37:52;;;;;;;1999.90;999.90;;;;;;;;;;6211565;23;20173;-73
2023/04/13 13:40:38;;;;;;;1999.90;999.90;;;;;;;;;;6211959;23;20243;-71
2023/04/13 13:43:23;;;;;;;1999.90;999.90;;;;;;;;;;6213170;23;20265;-72
2023/04/13 13:46:08;;;;;;;1999.90;999.90;;;;;;;;;;6213369;23;20166;-71
2023/04/13 13:48:53;;;;;;;1999.90;999.90;;;;;;;;;;6212094;23;20708;-71
2023/04/13 13:51:37;;;;;;;1999.90;999.90;;;;;;;;;;6213260;23;20205;-72
2023/04/13 13:54:22;;;;;;;1999.90;999.90;;;;;;;;;;6213218;23;20172;-71
2023/04/13 13:57:08;;;;;;;1999.90;999.90;;;;;;;;;;6212145;23;20173;-72
2023/04/13 13:59:53;;;;;;;1999.90;999.90;;;;;;;;;;6213147;23;20254;-71
2023/04/13 14:02:38;;;;;;;1999.90;999.90;;;;;;;;;;6211527;23;20416;-72
2023/04/13 14:05:23;;;;;;;1999.90;999.90;;;;;;;;;;6213225;23;20243;-72
2023/04/13 14:08:09;;;;;;;1999.90;999.90;;;;;;;;;;6212751;23;20168;-72
2023/04/13 14:10:54;;;;;;;1999.90;999.90;;;;;;;;;;6212355;23;20752;-72
2023/04/13 14:13:41;;;;;;;1999.90;999.90;;;;;;;;;;6213165;23;20205;-70
2023/04/13 14:16:25;;;;;;;1999.90;999.90;;;;;;;;;;6212476;23;20490;-71
2023/04/13 14:19:11;;;;;;;1999.90;999.90;;;;;;;;;;6211096;23;20165;-72
2023/04/13 14:21:56;;;;;;;1999.90;999.90;;;;;;;;;;6212507;23;20209;-72
2023/04/13 14:24:41;;;;;;;1999.90;999.90;;;;;;;;;;6213217;23;20625;-72
2023/04/13 14:27:26;;;;;;;1999.90;999.90;;;;;;;;;;6212425;23;20252;-72
2023/04/13 14:30:16;;;;;;;1999.90;999.90;;;;;;;;;;6212490;23;20724;-73
2023/04/13 14:33:02;;;;;;;1999.90;999.90;;;;;;;;;;6210012;23;20395;-73
2023/04/13 14:35:47;;;;;;;1999.90;999.90;;;;;;;;;;6212949;23;20169;-71
2023/04/13 14:38:34;;;;;;;1999.90;999.90;;;;;;;;;;6211826;23;20166;-73
2023/04/13 14:41:19;;;;;;;1999.90;999.90;;;;;;;;;;6210443;23;20277;-73
2023/04/13 14:44:04;;;;;;;1999.90;999.90;;;;;;;;;;6211451;23;20177;-73
2023/04/13 14:46:51;;;;;;;1999.90;999.90;;;;;;;;;;6210216;23;20189;-74
2023/04/13 14:49:36;;;;;;;1999.90;999.90;;;;;;;;;;6211590;23;20174;-72
2023/04/13 14:52:21;;;;;;;1999.90;999.90;;;;;;;;;;6210683;23;20602;-71
2023/04/13 14:55:06;;;;;;;1999.90;999.90;;;;;;;;;;6212556;23;20165;-72
2023/04/13 14:57:52;;;;;;;1999.90;999.90;;;;;;;;;;6212623;23;20170;-73
2023/04/13 15:00:40;;;;;;;1999.90;999.90;;;;;;;;;;6212031;23;20212;-73
2023/04/13 15:03:27;;;;;;;1999.90;999.90;;;;;;;;;;6212668;23;20248;-73
2023/04/13 15:06:12;;;;;;;1999.90;999.90;;;;;;;;;;6212710;23;20494;-71
2023/04/13 15:08:59;;;;;;;1999.90;999.90;;;;;;;;;;6211687;23;20255;-70
2023/04/13 15:11:44;;;;;;;1999.90;999.90;;;;;;;;;;6211577;23;20244;-72
2023/04/13 15:14:29;;;;;;;1999.90;999.90;;;;;;;;;;6212202;23;20187;-72
2023/04/13 15:17:14;;;;;;;1999.90;999.90;;;;;;;;;;6213180;23;20185;-72
2023/04/13 15:20:00;;;;;;;1999.90;999.90;;;;;;;;;;6213166;23;20204;-72
2023/04/13 15:22:45;;;;;;;1999.90;999.90;;;;;;;;;;6214583;23;20276;-73
2023/04/13 15:25:30;;;;;;;1999.90;999.90;;;;;;;;;;6213231;23;20642;-72
2023/04/13 15:28:17;;;;;;;1999.90;999.90;;;;;;;;;;6210216;23;20172;-73
2023/04/13 15:31:02;;;;;;;1999.90;999.90;;;;;;;;;;6210893;23;20197;-74
2023/04/13 15:33:46;;;;;;;1999.90;999.90;;;;;;;;;;6210136;23;20421;-69
2023/04/13 15:36:33;;;;;;;1999.90;999.90;;;;;;;;;;6212030;23;20168;-71
2023/04/13 15:39:18;;;;;;;1999.90;999.90;;;;;;;;;;6211087;23;20252;-70
2023/04/13 15:42:03;;;;;;;1999.90;999.90;;;;;;;;;;6211707;23;20402;-71
2023/04/13 15:44:48;;;;;;;1999.90;999.90;;;;;;;;;;6212172;23;20170;-70
2023/04/13 15:47:33;;;;;;;1999.90;999.90;;;;;;;;;;6212055;23;20640;-71
2023/04/13 15:50:18;;;;;;;1999.90;999.90;;;;;;;;;;6211772;23;20207;-70
2023/04/13 15:53:05;;;;;;;1999.90;999.90;;;;;;;;;;6214169;23;20172;-71
2023/04/13 15:55:50;;;;;;;1999.90;999.90;;;;;;;;;;6212820;23;20172;-70
2023/04/13 15:58:34;;;;;;;1999.90;999.90;;;;;;;;;;6214468;23;20224;-70
2023/04/13 16:01:19;;;;;;;1999.90;999.90;;;;;;;;;;6214082;23;20209;-71
2023/04/13 16:04:05;;;;;;;1999.90;999.90;;;;;;;;;;6213979;23;20244;-71
2023/04/13 16:06:50;;;;;;;1999.90;999.90;;;;;;;;;;6212740;23;20487;-70
2023/04/13 16:09:36;;;;;;;1999.90;999.90;;;;;;;;;;6213320;23;20173;-71
2023/04/13 16:12:21;;;;;;;1999.90;999.90;;;;;;;;;;6213032;23;20643;-70
2023/04/13 16:15:07;;;;;;;1999.90;999.90;;;;;;;;;;6214849;23;20172;-70
2023/04/13 16:17:55;;;;;;;1999.90;999.90;;;;;;;;;;6215796;23;20169;-72
2023/04/13 16:20:41;;;;;;;1999.90;999.90;;;;;;;;;;6214555;23;20379;-71
2023/04/13 16:23:26;;;;;;;1999.90;999.90;;;;;;;;;;6214759;23;20689;-69
2023/04/13 16:26:12;;;;;;;1999.90;999.90;;;;;;;;;;6213785;23;20249;-70